createdAt,value
2019-01-31T00:00:16.681Z,37.43
2019-01-31T00:01:54.093Z,40.90
2019-01-31T00:03:45.037Z,39.47
2019-01-31T00:05:25.986Z,35.40
2019-01-31T00:07:25.092Z,39.73
2019-01-31T00:09:00.359Z,39.57
2019-01-31T00:10:24.129Z,41.73
2019-01-31T00:12:19.107Z,35.33
2019-01-31T00:13:42.337Z,41.03
2019-01-31T00:15:06.791Z,35.63
2019-01-31T00:16:41.397Z,39.13
2019-01-31T00:18:03.536Z,35.63
2019-01-31T00:19:42.665Z,39.20
2019-01-31T00:21:23.961Z,34.27
2019-01-31T00:22:46.568Z,35.23
2019-01-31T00:24:30.583Z,39.67
2019-01-31T00:26:31.564Z,36.00
2019-01-31T00:27:49.354Z,36.03
2019-01-31T00:29:35.064Z,35.37
2019-01-31T00:31:10.316Z,34.97
2019-01-31T00:33:13.528Z,37.50
2019-01-31T00:35:02.443Z,36.40
2019-01-31T00:36:42.601Z,36.87
2019-01-31T00:38:09.992Z,36.27
2019-01-31T00:39:45.886Z,37.37
2019-01-31T00:41:22.177Z,39.10
2019-01-31T00:43:10.208Z,36.97
2019-01-31T00:44:43.117Z,39.30
2019-01-31T00:46:18.498Z,36.37
2019-01-31T00:47:40.686Z,38.93
2019-01-31T00:49:21.774Z,36.93
2019-01-31T00:50:45.383Z,37.97
2019-01-31T00:52:29.807Z,36.47
2019-01-31T00:53:59.661Z,39.57
2019-01-31T00:55:44.127Z,41.40
2019-01-31T00:57:44.535Z,39.90
2019-01-31T00:59:40.825Z,39.13
2019-01-31T01:01:15.976Z,36.83
2019-01-31T01:02:41.343Z,41.90
2019-01-31T01:04:13.248Z,41.23
2019-01-31T01:05:39.659Z,40.07
2019-01-31T01:07:37.173Z,45.20
2019-01-31T01:09:07.869Z,45.87
2019-01-31T01:11:00.685Z,40.67
2019-01-31T01:12:36.666Z,42.00
2019-01-31T01:13:50.462Z,41.83
2019-01-31T01:15:44.308Z,41.17
2019-01-31T01:17:05.727Z,39.43
2019-01-31T01:18:25.090Z,42.97
2019-01-31T01:19:56.117Z,39.77
2019-01-31T01:21:37.087Z,40.90
2019-01-31T01:23:02.278Z,44.20
2019-01-31T01:24:37.726Z,41.33
2019-01-31T01:26:22.034Z,39.30
2019-01-31T01:28:02.829Z,41.27
2019-01-31T01:30:00.217Z,37.70
2019-01-31T01:31:41.174Z,40.53
2019-01-31T02:25:53.100Z,25.47
2019-01-31T02:27:47.490Z,26.20
2019-01-31T02:29:18.723Z,28.43
2019-01-31T02:30:50.515Z,26.23
2019-01-31T02:32:32.787Z,27.97
2019-01-31T02:34:32.064Z,29.00
2019-01-31T02:36:10.647Z,27.90
2019-01-31T02:37:43.712Z,29.77
2019-01-31T02:39:25.486Z,27.23
2019-01-31T02:41:06.683Z,30.47
2019-01-31T02:43:00.939Z,28.47
2019-01-31T02:44:30.918Z,30.23
2019-01-31T02:46:16.111Z,29.63
2019-01-31T02:47:38.003Z,25.77
2019-01-31T02:48:48.045Z,29.70
2019-01-31T02:50:39.218Z,27.77
2019-01-31T02:52:08.007Z,25.20
2019-01-31T02:53:56.305Z,28.67
2019-01-31T02:55:37.110Z,25.90
2019-01-31T02:56:52.569Z,26.40
2019-01-31T02:58:11.035Z,26.07
2019-01-31T03:00:08.504Z,27.10
2019-01-31T03:01:27.609Z,27.00
2019-01-31T03:02:59.394Z,23.43
2019-01-31T03:04:28.297Z,27.80
2019-01-31T03:06:22.591Z,27.53
2019-01-31T03:08:06.311Z,21.87
2019-01-31T03:09:54.981Z,23.20
2019-01-31T03:11:25.080Z,24.80
2019-01-31T03:13:00.665Z,25.90
2019-01-31T03:14:13.624Z,22.90
2019-01-31T03:15:45.103Z,22.13
2019-01-31T03:17:35.077Z,22.03
2019-01-31T03:18:48.480Z,18.03
2019-01-31T03:20:01.576Z,21.53
2019-01-31T03:21:49.944Z,22.40
2019-01-31T03:23:20.743Z,27.17
2019-01-31T03:25:14.585Z,22.13
2019-01-31T03:26:30.061Z,20.40
2019-01-31T03:28:07.654Z,24.90
2019-01-31T03:29:47.044Z,23.80
2019-01-31T03:31:38.101Z,23.80
2019-01-31T03:33:07.122Z,23.13
2019-01-31T03:35:01.556Z,21.23
2019-01-31T03:36:51.438Z,25.97
2019-01-31T03:38:41.643Z,25.73
2019-01-31T03:40:21.101Z,24.33
2019-01-31T03:42:15.333Z,20.83
2019-01-31T03:44:08.944Z,23.73
2019-01-31T03:45:30.338Z,22.87
2019-01-31T03:47:24.432Z,23.10
2019-01-31T03:48:47.736Z,20.60
2019-01-31T03:50:19.501Z,24.27
2019-01-31T03:52:19.948Z,23.17
2019-01-31T03:54:11.040Z,25.57
2019-01-31T03:55:40.715Z,23.23
2019-01-31T03:57:06.651Z,22.33
2019-01-31T03:58:49.352Z,24.20
2019-01-31T04:00:19.137Z,25.73
2019-01-31T04:02:13.857Z,22.47
2019-01-31T04:03:33.695Z,21.67
2019-01-31T04:05:06.862Z,21.43
2019-01-31T04:06:22.360Z,24.30
2019-01-31T04:07:26.720Z,22.77
2019-01-31T04:08:31.160Z,23.00
2019-01-31T04:09:36.001Z,26.00
2019-01-31T04:10:40.501Z,25.67
2019-01-31T04:11:44.858Z,20.60
2019-01-31T04:12:49.309Z,23.13
2019-01-31T04:13:53.652Z,24.87
2019-01-31T04:14:58.143Z,25.37
2019-01-31T04:16:02.549Z,23.40
2019-01-31T04:17:07.284Z,28.93
2019-01-31T04:18:11.659Z,26.07
2019-01-31T04:19:16.045Z,25.40
2019-01-31T04:20:20.442Z,26.23
2019-01-31T04:21:24.918Z,23.33
2019-01-31T04:22:29.257Z,23.83
2019-01-31T04:23:33.924Z,25.47
2019-01-31T04:24:38.313Z,26.43
2019-01-31T04:25:42.714Z,29.87
2019-01-31T04:26:47.156Z,25.77
2019-01-31T04:27:51.610Z,26.03
2019-01-31T04:28:56.102Z,36.40
2019-01-31T04:30:00.564Z,30.03
2019-01-31T04:31:05.103Z,27.03
2019-01-31T04:32:09.584Z,28.83
2019-01-31T04:33:14.046Z,29.87
2019-01-31T04:34:18.464Z,24.30
2019-01-31T04:35:22.991Z,24.70
2019-01-31T04:36:27.504Z,26.87
2019-01-31T04:37:31.926Z,30.23
2019-01-31T04:38:36.336Z,29.30
2019-01-31T04:39:41.068Z,24.53
2019-01-31T04:40:45.619Z,29.53
2019-01-31T04:41:50.121Z,28.13
2019-01-31T04:42:54.561Z,28.03
2019-01-31T04:43:59.045Z,26.93
2019-01-31T04:45:03.484Z,27.40
2019-01-31T04:46:07.932Z,28.93
2019-01-31T04:47:12.407Z,26.77
2019-01-31T04:48:16.843Z,28.33
2019-01-31T04:49:21.215Z,26.77
2019-01-31T04:50:25.616Z,27.67
2019-01-31T04:51:29.987Z,29.97
2019-01-31T04:52:34.662Z,28.83
2019-01-31T04:53:42.149Z,31.73
2019-01-31T04:54:46.577Z,25.67
2019-01-31T04:55:50.948Z,24.33
2019-01-31T04:56:55.286Z,30.67
2019-01-31T04:57:59.710Z,28.37
2019-01-31T04:59:04.234Z,26.97
2019-01-31T05:00:12.802Z,30.00
2019-01-31T05:01:17.302Z,32.23
2019-01-31T05:02:21.810Z,30.10
2019-01-31T05:03:26.221Z,33.07
2019-01-31T05:04:30.726Z,32.17
2019-01-31T05:05:36.248Z,30.50
2019-01-31T05:06:43.551Z,29.17
2019-01-31T05:07:48.009Z,27.93
2019-01-31T05:08:52.545Z,28.67
2019-01-31T05:09:56.908Z,34.03
2019-01-31T05:11:01.292Z,32.90
2019-01-31T05:12:05.746Z,33.33
2019-01-31T05:13:10.560Z,32.53
2019-01-31T05:14:18.122Z,31.00
2019-01-31T05:15:22.686Z,30.37
2019-01-31T05:16:27.172Z,34.67
2019-01-31T05:17:31.709Z,31.43
2019-01-31T05:18:36.511Z,31.40
2019-01-31T05:19:41.093Z,29.03
2019-01-31T05:20:45.737Z,26.30
2019-01-31T05:21:50.140Z,29.73
2019-01-31T05:22:54.669Z,29.33
2019-01-31T05:23:59.116Z,35.53
2019-01-31T05:25:03.538Z,33.40
2019-01-31T05:26:08.111Z,29.90
2019-01-31T05:27:12.599Z,32.90
2019-01-31T05:28:17.022Z,32.57
2019-01-31T05:29:21.499Z,32.33
2019-01-31T05:30:26.039Z,35.07
2019-01-31T05:31:30.553Z,31.70
2019-01-31T05:32:35.839Z,34.70
2019-01-31T05:33:40.700Z,30.30
2019-01-31T05:34:45.237Z,32.47
2019-01-31T05:35:49.882Z,33.03
2019-01-31T05:36:54.260Z,30.37
2019-01-31T05:37:58.688Z,34.53
2019-01-31T05:39:04.211Z,34.10
2019-01-31T05:40:10.346Z,36.57
2019-01-31T05:41:14.776Z,30.60
2019-01-31T05:42:19.122Z,37.00
2019-01-31T05:43:23.567Z,29.80
2019-01-31T05:44:27.941Z,28.43
2019-01-31T05:45:32.316Z,34.63
2019-01-31T05:46:36.837Z,37.70
2019-01-31T05:47:41.524Z,31.63
2019-01-31T05:48:46.014Z,35.20
2019-01-31T05:49:50.568Z,31.30
2019-01-31T05:50:55.056Z,31.87
2019-01-31T05:51:59.433Z,28.13
2019-01-31T05:53:03.938Z,31.30
2019-01-31T05:54:08.447Z,28.77
2019-01-31T05:55:13.415Z,33.70
2019-01-31T05:56:18.025Z,33.60
2019-01-31T05:57:22.459Z,34.77
2019-01-31T05:58:26.797Z,34.30
2019-01-31T05:59:31.256Z,32.83
2019-01-31T06:00:38.401Z,34.37
2019-01-31T06:01:43.075Z,36.43
2019-01-31T06:02:48.100Z,35.43
2019-01-31T06:03:53.030Z,34.13
2019-01-31T06:04:57.706Z,40.40
2019-01-31T06:06:02.465Z,37.80
2019-01-31T06:07:11.210Z,33.47
2019-01-31T06:08:13.588Z,32.40
2019-01-31T06:09:17.988Z,34.67
2019-01-31T06:10:22.455Z,37.97
2019-01-31T06:11:26.804Z,37.33
2019-01-31T06:12:31.205Z,35.77
2019-01-31T06:13:35.556Z,40.60
2019-01-31T06:14:39.996Z,36.53
2019-01-31T06:15:44.470Z,34.60
2019-01-31T06:16:48.872Z,35.90
2019-01-31T06:17:53.917Z,43.40
2019-01-31T06:18:58.298Z,33.07
2019-01-31T06:20:02.681Z,37.73
2019-01-31T06:21:07.200Z,42.03
2019-01-31T06:22:11.622Z,40.87
2019-01-31T06:23:15.993Z,35.50
2019-01-31T06:24:20.562Z,37.70
2019-01-31T06:25:25.017Z,45.93
2019-01-31T06:26:29.475Z,37.23
2019-01-31T06:27:33.913Z,37.80
2019-01-31T06:28:38.280Z,36.97
2019-01-31T06:29:42.683Z,35.50
2019-01-31T06:30:47.120Z,36.10
2019-01-31T06:31:51.613Z,42.97
2019-01-31T06:32:56.014Z,36.80
2019-01-31T06:34:00.595Z,41.97
2019-01-31T06:35:05.746Z,39.63
2019-01-31T06:36:10.198Z,40.87
2019-01-31T06:37:14.697Z,37.77
2019-01-31T06:38:19.149Z,41.00
2019-01-31T06:39:23.600Z,45.83
2019-01-31T06:40:28.040Z,39.00
2019-01-31T06:41:32.463Z,38.77
2019-01-31T06:42:36.965Z,41.83
2019-01-31T06:43:43.713Z,49.63
2019-01-31T06:44:48.091Z,38.60
2019-01-31T06:45:52.465Z,43.53
2019-01-31T06:46:56.973Z,38.97
2019-01-31T06:48:01.513Z,41.60
2019-01-31T06:49:06.112Z,34.47
2019-01-31T06:50:10.952Z,36.60
2019-01-31T06:51:15.520Z,38.73
2019-01-31T06:52:20.007Z,38.23
2019-01-31T06:53:24.385Z,33.57
2019-01-31T06:54:28.812Z,37.13
2019-01-31T06:55:33.229Z,33.67
2019-01-31T06:56:37.908Z,36.27
2019-01-31T06:57:43.397Z,37.50
2019-01-31T06:58:47.843Z,40.93
2019-01-31T06:59:52.315Z,35.23
2019-01-31T07:00:57.019Z,36.27
2019-01-31T07:02:01.504Z,32.53
2019-01-31T07:03:06.122Z,35.23
2019-01-31T07:04:11.091Z,34.27
2019-01-31T07:05:15.783Z,33.63
2019-01-31T07:06:20.342Z,39.87
2019-01-31T07:07:24.822Z,36.40
2019-01-31T07:08:29.280Z,40.83
2019-01-31T07:09:33.722Z,42.80
2019-01-31T07:10:38.260Z,40.53
2019-01-31T07:11:45.526Z,40.00
2019-01-31T07:12:50.000Z,38.50
2019-01-31T07:13:54.388Z,32.90
2019-01-31T07:14:58.888Z,32.30
2019-01-31T07:16:03.494Z,34.30
2019-01-31T07:17:07.961Z,39.50
2019-01-31T07:18:13.458Z,42.23
2019-01-31T07:19:17.987Z,35.10
2019-01-31T07:20:22.402Z,36.13
2019-01-31T07:21:26.903Z,33.67
2019-01-31T07:22:31.303Z,37.03
2019-01-31T07:23:35.766Z,40.53
2019-01-31T07:24:40.162Z,43.83
2019-01-31T07:25:44.700Z,40.50
2019-01-31T07:26:49.247Z,39.10
2019-01-31T07:27:53.746Z,33.67
2019-01-31T07:28:58.197Z,35.83
2019-01-31T07:30:02.718Z,32.47
2019-01-31T07:31:07.196Z,37.60
2019-01-31T07:32:12.049Z,38.53
2019-01-31T07:33:16.459Z,33.97
2019-01-31T07:34:21.112Z,37.13
2019-01-31T07:35:25.605Z,31.20
2019-01-31T07:36:30.143Z,27.93
2019-01-31T07:37:34.505Z,30.00
2019-01-31T07:38:39.134Z,32.47
2019-01-31T07:39:43.601Z,28.57
2019-01-31T07:40:47.993Z,29.63
2019-01-31T07:41:52.420Z,31.23
2019-01-31T07:42:56.815Z,30.80
2019-01-31T07:44:01.467Z,30.30
2019-01-31T07:45:07.781Z,25.87
2019-01-31T07:46:12.615Z,31.90
2019-01-31T07:47:17.054Z,27.87
2019-01-31T07:48:21.486Z,26.23
2019-01-31T07:49:26.239Z,28.13
2019-01-31T07:50:30.769Z,27.93
2019-01-31T07:51:35.189Z,27.30
2019-01-31T07:52:39.746Z,30.07
2019-01-31T07:53:44.359Z,31.27
2019-01-31T07:54:48.997Z,27.33
2019-01-31T07:55:53.490Z,29.73
2019-01-31T07:56:57.985Z,38.20
2019-01-31T07:58:02.612Z,36.20
2019-01-31T07:59:07.095Z,26.67
2019-01-31T08:00:15.213Z,26.27
2019-01-31T08:01:19.771Z,25.70
2019-01-31T08:02:24.263Z,27.87
2019-01-31T08:03:28.776Z,29.97
2019-01-31T08:04:33.209Z,24.03
2019-01-31T08:05:37.675Z,25.73
2019-01-31T08:06:42.140Z,24.57
2019-01-31T08:07:46.832Z,24.80
2019-01-31T08:08:51.264Z,28.03
2019-01-31T08:09:56.114Z,26.60
2019-01-31T08:11:00.871Z,25.40
2019-01-31T08:12:05.349Z,26.37
2019-01-31T08:13:10.447Z,23.40
2019-01-31T08:14:17.159Z,27.17
2019-01-31T08:15:21.702Z,30.63
2019-01-31T08:16:26.452Z,27.20
2019-01-31T08:17:31.207Z,24.10
2019-01-31T08:18:37.024Z,27.60
2019-01-31T08:19:42.059Z,28.17
2019-01-31T08:20:46.716Z,28.23
2019-01-31T08:21:51.268Z,24.47
2019-01-31T08:22:55.668Z,25.63
2019-01-31T08:24:01.675Z,26.93
2019-01-31T08:25:06.518Z,24.63
2019-01-31T08:26:11.083Z,24.47
2019-01-31T08:27:15.838Z,21.57
2019-01-31T08:28:20.230Z,24.77
2019-01-31T08:29:25.748Z,26.17
2019-01-31T08:30:32.419Z,21.37
2019-01-31T08:31:36.741Z,22.13
2019-01-31T08:32:41.177Z,25.27
2019-01-31T08:33:45.590Z,22.10
2019-01-31T08:34:50.046Z,22.57
2019-01-31T08:35:54.629Z,20.23
2019-01-31T08:36:59.000Z,19.93
2019-01-31T08:38:03.554Z,17.47
2019-01-31T08:39:09.237Z,21.10
2019-01-31T08:40:16.385Z,18.17
2019-01-31T08:41:20.792Z,17.87
2019-01-31T08:42:25.225Z,18.43
2019-01-31T08:43:29.661Z,17.90
2019-01-31T08:44:34.074Z,18.67
2019-01-31T08:45:38.468Z,23.07
2019-01-31T08:46:42.777Z,16.37
2019-01-31T08:47:47.299Z,15.53
2019-01-31T08:48:51.888Z,14.13
2019-01-31T08:49:56.362Z,15.10
2019-01-31T08:51:01.071Z,17.13
2019-01-31T08:52:05.748Z,12.83
2019-01-31T08:53:10.284Z,13.20
2019-01-31T08:54:14.957Z,12.07
2019-01-31T08:55:19.489Z,15.53
2019-01-31T08:56:23.986Z,13.67
2019-01-31T08:57:28.555Z,11.73
2019-01-31T08:58:33.073Z,14.07
2019-01-31T08:59:40.701Z,14.83
2019-01-31T09:00:45.290Z,15.50
2019-01-31T09:01:49.762Z,15.30
2019-01-31T09:02:54.272Z,12.80
2019-01-31T09:03:58.746Z,13.30
2019-01-31T09:05:03.232Z,17.27
2019-01-31T09:06:07.841Z,12.67
2019-01-31T09:07:12.430Z,11.67
2019-01-31T09:08:16.961Z,12.20
2019-01-31T09:09:21.358Z,17.37
2019-01-31T09:10:28.233Z,12.53
2019-01-31T09:11:32.689Z,13.63
2019-01-31T09:12:37.269Z,14.40
2019-01-31T09:13:43.431Z,15.40
2019-01-31T09:14:47.917Z,11.53
2019-01-31T09:15:52.389Z,15.13
2019-01-31T09:16:56.832Z,12.30
2019-01-31T09:18:01.235Z,14.53
2019-01-31T09:19:06.022Z,13.37
2019-01-31T09:20:12.246Z,13.77
2019-01-31T09:21:56.921Z,12.63
2019-01-31T09:23:35.397Z,14.70
2019-01-31T09:25:17.226Z,11.60
2019-01-31T09:27:04.167Z,15.30
2019-01-31T09:28:25.030Z,13.90
2019-01-31T09:30:09.206Z,11.17
2019-01-31T09:31:57.657Z,14.30
2019-01-31T09:33:32.843Z,13.03
2019-01-31T09:35:20.057Z,8.17
2019-01-31T09:36:43.339Z,12.73
2019-01-31T09:38:24.265Z,9.27
2019-01-31T09:40:03.684Z,12.13
2019-01-31T09:41:33.894Z,10.47
2019-01-31T09:43:13.673Z,9.90
2019-01-31T09:44:51.684Z,13.70
2019-01-31T09:46:05.154Z,10.73
2019-01-31T09:47:52.378Z,11.20
2019-01-31T09:49:33.497Z,9.97
2019-01-31T09:51:05.956Z,10.97
2019-01-31T09:53:06.023Z,9.67
2019-01-31T09:55:06.143Z,10.90
2019-01-31T09:56:49.560Z,10.23
2019-01-31T09:58:28.007Z,9.70
2019-01-31T10:00:26.805Z,8.50
2019-01-31T10:01:48.571Z,11.27
2019-01-31T10:03:26.327Z,10.23
2019-01-31T10:04:52.944Z,11.50
2019-01-31T10:06:33.986Z,10.23
2019-01-31T10:08:05.891Z,9.37
2019-01-31T10:09:50.801Z,13.23
2019-01-31T10:11:29.073Z,11.10
2019-01-31T10:12:59.019Z,9.57
2019-01-31T10:14:39.221Z,9.43
2019-01-31T10:16:08.199Z,14.63
2019-01-31T10:17:37.810Z,15.10
2019-01-31T10:19:24.413Z,10.33
2019-01-31T10:20:57.385Z,11.57
2019-01-31T10:22:32.380Z,10.93
2019-01-31T10:24:11.773Z,12.80
2019-01-31T10:25:35.447Z,12.07
2019-01-31T10:27:19.906Z,10.43
2019-01-31T10:28:54.643Z,9.47
2019-01-31T10:30:52.124Z,11.13
2019-01-31T10:32:43.265Z,10.63
2019-01-31T10:34:46.893Z,10.93
2019-01-31T10:36:24.141Z,11.03
2019-01-31T10:38:20.364Z,10.47
2019-01-31T10:39:39.291Z,11.63
2019-01-31T10:41:15.064Z,10.47
2019-01-31T10:42:52.358Z,9.90
2019-01-31T10:44:22.712Z,12.00
2019-01-31T10:46:11.363Z,10.87
2019-01-31T10:47:45.584Z,10.70
2019-01-31T10:49:38.391Z,11.60
2019-01-31T10:51:03.686Z,12.10
2019-01-31T10:52:57.859Z,11.40
2019-01-31T10:54:28.612Z,13.90
2019-01-31T10:55:54.412Z,10.87
2019-01-31T10:57:35.423Z,12.57
2019-01-31T10:59:14.204Z,8.13
2019-01-31T11:00:47.322Z,14.30
2019-01-31T11:02:28.281Z,9.40
2019-01-31T11:04:19.742Z,12.70
2019-01-31T11:06:25.970Z,11.73
2019-01-31T11:07:48.498Z,9.57
2019-01-31T11:09:18.808Z,12.27
2019-01-31T11:10:38.219Z,11.80
2019-01-31T11:12:06.013Z,11.13
2019-01-31T11:13:44.098Z,13.63
2019-01-31T11:15:29.584Z,14.33
2019-01-31T11:17:05.523Z,15.73
2019-01-31T11:18:37.851Z,14.83
2019-01-31T11:20:00.320Z,17.00
2019-01-31T11:21:41.112Z,10.27
2019-01-31T11:23:26.578Z,12.50
2019-01-31T11:24:44.365Z,15.17
2019-01-31T11:26:30.817Z,13.27
2019-01-31T11:28:09.697Z,12.13
2019-01-31T11:29:50.968Z,12.73
2019-01-31T11:31:40.918Z,11.33
2019-01-31T11:33:15.485Z,11.03
2019-01-31T11:34:41.505Z,11.97
2019-01-31T11:36:33.061Z,10.57
2019-01-31T11:38:11.727Z,11.90
2019-01-31T11:39:49.311Z,10.30
2019-01-31T11:41:36.644Z,11.47
2019-01-31T11:43:22.089Z,12.83
2019-01-31T11:45:11.740Z,11.07
2019-01-31T11:46:45.835Z,12.23
2019-01-31T11:48:32.404Z,11.67
2019-01-31T11:50:02.396Z,15.30
2019-01-31T11:51:42.439Z,14.40
2019-01-31T11:53:13.513Z,13.90
2019-01-31T11:54:45.974Z,13.97
2019-01-31T11:56:34.297Z,13.87
2019-01-31T11:58:26.077Z,14.53
2019-01-31T11:59:30.584Z,12.03
2019-01-31T12:00:35.129Z,13.60
2019-01-31T12:01:39.867Z,13.37
2019-01-31T12:02:54.443Z,15.20
2019-01-31T12:04:02.197Z,14.57
2019-01-31T12:05:07.136Z,13.87
2019-01-31T12:06:11.757Z,12.97
2019-01-31T12:07:16.317Z,14.23
2019-01-31T12:08:20.876Z,12.43
2019-01-31T12:09:25.409Z,12.53
2019-01-31T12:10:31.603Z,11.97
2019-01-31T12:11:36.157Z,11.90
2019-01-31T12:12:43.757Z,11.47
2019-01-31T12:13:47.286Z,10.47
2019-01-31T12:14:51.951Z,10.00
2019-01-31T12:15:56.412Z,12.33
2019-01-31T12:17:00.849Z,10.67
2019-01-31T12:18:06.898Z,9.90
2019-01-31T12:19:11.413Z,10.93
2019-01-31T12:20:16.885Z,11.17
2019-01-31T12:21:21.686Z,9.67
2019-01-31T12:22:26.023Z,11.87
2019-01-31T12:23:32.244Z,10.50
2019-01-31T12:24:36.606Z,9.30
2019-01-31T12:25:41.028Z,9.77
2019-01-31T12:26:45.414Z,11.23
2019-01-31T12:27:49.910Z,10.80
2019-01-31T12:28:54.441Z,7.73
2019-01-31T12:29:58.872Z,9.57
2019-01-31T12:31:03.397Z,10.57
2019-01-31T12:32:07.985Z,9.67
2019-01-31T12:33:12.685Z,8.70
2019-01-31T12:34:18.798Z,9.00
2019-01-31T12:35:23.244Z,12.40
2019-01-31T12:36:27.641Z,9.63
2019-01-31T12:37:32.275Z,9.07
2019-01-31T12:38:37.221Z,10.03
2019-01-31T12:39:41.770Z,8.97
2019-01-31T12:40:46.165Z,9.00
2019-01-31T12:41:50.701Z,8.93
2019-01-31T12:42:55.189Z,9.53
2019-01-31T12:43:59.697Z,9.50
2019-01-31T12:45:04.098Z,8.30
2019-01-31T12:46:08.716Z,9.50
2019-01-31T12:47:13.237Z,8.83
2019-01-31T12:48:17.655Z,9.73
2019-01-31T12:49:22.274Z,8.57
2019-01-31T12:50:28.413Z,8.87
2019-01-31T12:51:32.947Z,9.23
2019-01-31T12:52:37.291Z,8.50
2019-01-31T12:53:41.681Z,8.93
2019-01-31T12:54:45.989Z,7.43
2019-01-31T12:55:50.613Z,8.50
2019-01-31T12:56:55.021Z,10.63
2019-01-31T12:57:59.426Z,9.87
2019-01-31T12:59:03.834Z,9.97
2019-01-31T13:00:14.888Z,10.27
2019-01-31T13:01:19.613Z,12.37
2019-01-31T13:02:24.097Z,10.07
2019-01-31T13:03:28.591Z,8.03
2019-01-31T13:04:33.031Z,7.83
2019-01-31T13:05:37.575Z,9.53
2019-01-31T13:06:42.114Z,8.37
2019-01-31T13:07:47.171Z,9.33
2019-01-31T13:08:51.683Z,8.13
2019-01-31T13:09:56.119Z,11.43
2019-01-31T13:11:00.856Z,8.27
2019-01-31T13:12:05.672Z,8.50
2019-01-31T13:13:10.365Z,10.20
2019-01-31T13:14:15.019Z,9.57
2019-01-31T13:15:20.216Z,10.33
2019-01-31T13:16:24.681Z,9.30
2019-01-31T13:17:29.199Z,11.07
2019-01-31T13:18:33.570Z,6.97
2019-01-31T13:19:37.976Z,10.20
2019-01-31T13:20:42.492Z,12.03
2019-01-31T13:21:47.223Z,8.67
2019-01-31T13:22:53.983Z,10.00
2019-01-31T13:23:58.444Z,7.67
2019-01-31T13:25:02.912Z,7.33
2019-01-31T13:26:07.448Z,16.03
2019-01-31T13:27:12.162Z,9.73
2019-01-31T13:28:16.975Z,9.67
2019-01-31T13:29:21.654Z,8.67
2019-01-31T13:30:26.277Z,8.90
2019-01-31T13:31:30.763Z,11.47
2019-01-31T13:32:35.673Z,11.33
2019-01-31T13:33:40.163Z,13.63
2019-01-31T13:34:44.937Z,11.33
2019-01-31T13:35:49.753Z,10.50
2019-01-31T13:36:54.149Z,12.40
2019-01-31T13:37:58.766Z,15.23
2019-01-31T13:39:04.151Z,12.20
2019-01-31T13:40:12.933Z,11.70
2019-01-31T13:41:17.459Z,15.40
2019-01-31T13:42:21.968Z,13.87
2019-01-31T13:43:26.458Z,13.90
2019-01-31T13:44:30.958Z,13.27
2019-01-31T13:45:37.372Z,12.20
2019-01-31T13:46:41.974Z,13.47
2019-01-31T13:47:46.873Z,11.70
2019-01-31T13:48:51.495Z,12.40
2019-01-31T13:49:55.989Z,14.40
2019-01-31T13:51:00.518Z,12.03
2019-01-31T13:52:06.149Z,13.50
2019-01-31T13:53:11.378Z,12.17
2019-01-31T13:54:15.995Z,13.23
2019-01-31T13:55:26.138Z,17.20
2019-01-31T13:56:30.665Z,14.80
2019-01-31T13:57:35.446Z,13.90
2019-01-31T13:58:39.907Z,13.93
2019-01-31T13:59:44.401Z,12.97
2019-01-31T14:00:48.899Z,14.07
2019-01-31T14:01:53.275Z,13.87
2019-01-31T14:02:57.700Z,12.97
2019-01-31T14:04:02.186Z,13.90
2019-01-31T14:05:06.985Z,12.10
2019-01-31T14:06:11.617Z,15.67
2019-01-31T14:07:16.085Z,16.30
2019-01-31T14:08:20.737Z,14.27
2019-01-31T14:09:25.242Z,13.43
2019-01-31T14:10:29.736Z,14.33
2019-01-31T14:11:34.254Z,12.23
2019-01-31T14:12:38.775Z,16.23
2019-01-31T14:13:43.278Z,13.20
2019-01-31T14:14:47.784Z,11.77
2019-01-31T14:15:53.944Z,13.30
2019-01-31T14:16:58.415Z,12.83
2019-01-31T14:18:02.978Z,16.47
2019-01-31T14:19:07.548Z,15.77
2019-01-31T14:20:15.321Z,12.30
2019-01-31T14:21:19.822Z,12.13
2019-01-31T14:22:24.215Z,14.13
2019-01-31T14:23:28.581Z,10.80
2019-01-31T14:24:33.451Z,13.10
2019-01-31T14:25:38.069Z,15.07
2019-01-31T14:26:42.620Z,17.17
2019-01-31T14:27:50.009Z,16.77
2019-01-31T14:28:53.373Z,13.17
2019-01-31T14:29:57.882Z,12.83
2019-01-31T14:31:02.403Z,12.97
2019-01-31T14:32:06.948Z,13.60
2019-01-31T14:33:19.374Z,16.00
2019-01-31T14:34:23.793Z,12.53
2019-01-31T14:35:28.526Z,13.63
2019-01-31T14:36:33.122Z,12.73
2019-01-31T14:37:37.541Z,14.00
2019-01-31T14:38:42.133Z,15.27
2019-01-31T14:39:46.689Z,14.53
2019-01-31T14:40:51.346Z,14.03
2019-01-31T14:41:55.922Z,21.43
2019-01-31T14:43:00.449Z,12.27
2019-01-31T14:44:05.149Z,17.13
2019-01-31T14:45:10.417Z,15.67
2019-01-31T14:46:14.940Z,17.10
2019-01-31T14:47:19.391Z,15.37
2019-01-31T14:48:24.173Z,12.80
2019-01-31T14:49:28.640Z,18.00
2019-01-31T14:50:33.813Z,16.07
2019-01-31T14:51:38.407Z,14.80
2019-01-31T14:52:42.795Z,15.30
2019-01-31T14:53:47.336Z,12.77
2019-01-31T14:54:51.862Z,17.03
2019-01-31T14:55:56.455Z,13.37
2019-01-31T14:57:00.975Z,14.90
2019-01-31T14:58:07.334Z,15.93
2019-01-31T14:59:11.951Z,13.93
2019-01-31T15:00:22.299Z,13.60
2019-01-31T15:01:26.789Z,15.43
2019-01-31T15:02:31.250Z,15.13
2019-01-31T15:03:35.716Z,14.10
2019-01-31T15:04:40.252Z,16.07
2019-01-31T15:05:44.909Z,14.43
2019-01-31T15:06:49.459Z,15.00
2019-01-31T15:07:53.976Z,13.33
2019-01-31T15:08:58.489Z,14.43
2019-01-31T15:10:03.054Z,13.43
2019-01-31T15:11:07.773Z,14.87
2019-01-31T15:12:12.325Z,13.83
2019-01-31T15:13:16.773Z,15.83
2019-01-31T15:14:31.268Z,14.77
2019-01-31T15:15:27.678Z,14.70
2019-01-31T15:16:32.344Z,14.87
2019-01-31T15:17:36.834Z,16.20
2019-01-31T15:18:41.235Z,17.40
2019-01-31T15:19:45.736Z,17.50
2019-01-31T15:20:50.240Z,15.80
2019-01-31T15:21:54.776Z,16.73
2019-01-31T15:22:59.443Z,13.90
2019-01-31T15:24:04.049Z,15.40
2019-01-31T15:25:08.969Z,15.90
2019-01-31T15:26:13.690Z,14.73
2019-01-31T15:27:18.242Z,16.13
2019-01-31T15:28:22.874Z,16.60
2019-01-31T15:29:27.273Z,15.07
2019-01-31T15:30:33.272Z,17.67
2019-01-31T15:31:37.679Z,16.77
2019-01-31T15:32:42.166Z,16.27
2019-01-31T15:33:46.730Z,15.90
2019-01-31T15:34:51.079Z,15.53
2019-01-31T15:35:55.519Z,16.63
2019-01-31T15:37:02.101Z,19.73
2019-01-31T15:38:06.473Z,14.10
2019-01-31T15:39:11.147Z,14.73
2019-01-31T15:40:18.604Z,16.20
2019-01-31T15:41:23.255Z,17.27
2019-01-31T15:42:27.741Z,15.53
2019-01-31T15:43:32.283Z,17.63
2019-01-31T15:44:43.010Z,14.50
2019-01-31T15:45:42.913Z,15.43
2019-01-31T15:46:47.449Z,15.93
2019-01-31T15:47:52.395Z,18.53
2019-01-31T15:48:56.943Z,17.10
2019-01-31T15:50:01.480Z,20.87
2019-01-31T15:51:06.184Z,17.37
2019-01-31T15:52:10.806Z,17.17
2019-01-31T15:53:15.296Z,17.83
2019-01-31T15:54:19.717Z,16.93
2019-01-31T15:55:24.992Z,14.37
2019-01-31T15:56:29.461Z,16.17
2019-01-31T15:57:33.932Z,17.70
2019-01-31T15:58:38.462Z,16.77
2019-01-31T15:59:42.927Z,16.80
2019-01-31T16:00:49.943Z,17.83
2019-01-31T16:01:54.669Z,18.10
2019-01-31T16:02:59.267Z,16.30
2019-01-31T16:04:03.737Z,20.20
2019-01-31T16:05:18.627Z,17.97
2019-01-31T16:06:14.681Z,16.73
2019-01-31T16:07:19.091Z,16.80
2019-01-31T16:08:23.964Z,15.57
2019-01-31T16:09:28.469Z,19.50
2019-01-31T16:10:33.059Z,17.57
2019-01-31T16:11:37.706Z,16.33
2019-01-31T16:13:01.574Z,20.63
2019-01-31T16:14:06.517Z,17.93
2019-01-31T16:15:16.432Z,19.60
2019-01-31T16:16:21.833Z,15.93
2019-01-31T16:17:28.007Z,21.17
2019-01-31T16:18:33.288Z,22.80
2019-01-31T16:19:38.345Z,20.60
2019-01-31T16:20:43.404Z,19.13
2019-01-31T16:21:48.369Z,19.83
2019-01-31T16:22:53.084Z,20.67
2019-01-31T16:23:57.703Z,20.53
2019-01-31T16:25:02.730Z,20.30
2019-01-31T16:26:07.355Z,19.20
2019-01-31T16:27:12.612Z,18.77
2019-01-31T16:28:17.360Z,21.33
2019-01-31T16:29:22.039Z,18.93
2019-01-31T16:30:26.701Z,18.27
2019-01-31T16:31:31.255Z,21.40
2019-01-31T16:32:36.014Z,21.17
2019-01-31T16:33:40.689Z,19.33
2019-01-31T16:34:45.542Z,17.27
2019-01-31T16:35:53.748Z,19.20
2019-01-31T16:36:57.254Z,18.97
2019-01-31T16:38:01.723Z,17.67
2019-01-31T16:39:09.288Z,19.07
2019-01-31T16:40:14.590Z,17.80
2019-01-31T16:41:19.112Z,17.43
2019-01-31T16:42:23.734Z,15.63
2019-01-31T16:43:30.181Z,19.17
2019-01-31T16:44:36.554Z,15.63
2019-01-31T16:45:41.382Z,20.10
2019-01-31T16:46:46.056Z,16.40
2019-01-31T16:47:50.733Z,18.13
2019-01-31T16:48:55.451Z,16.07